createdAt,value
2023-04-26T00:00:13.532Z,6.03
2023-04-26T00:02:15.927Z,5.20
2023-04-26T00:04:17.958Z,3.95
2023-04-26T00:06:19.966Z,4.15
2023-04-26T00:08:21.548Z,4.95
2023-04-26T00:10:23.349Z,4.13
2023-04-26T00:12:25.260Z,4.25
2023-04-26T00:14:26.796Z,6.53
2023-04-26T00:16:28.424Z,4.85
2023-04-26T00:18:30.334Z,4.43
2023-04-26T00:20:32.025Z,3.50
2023-04-26T00:22:33.612Z,4.20
2023-04-26T00:24:35.570Z,5.40
2023-04-26T00:26:37.312Z,4.45
2023-04-26T00:28:38.858Z,4.10
2023-04-26T00:30:47.348Z,3.83
2023-04-26T00:32:48.931Z,4.30
2023-04-26T00:34:50.608Z,4.72
2023-04-26T00:36:52.576Z,3.95
2023-04-26T00:38:54.277Z,3.90
2023-04-26T00:40:56.115Z,5.03
2023-04-26T00:42:58.457Z,4.93
2023-04-26T00:44:59.980Z,3.97
2023-04-26T00:47:01.777Z,3.28
2023-04-26T00:49:03.498Z,5.47
2023-04-26T00:51:06.357Z,3.50
2023-04-26T00:53:08.529Z,3.33
2023-04-26T00:55:10.461Z,4.90
2023-04-26T00:57:12.792Z,3.90
2023-04-26T00:59:14.404Z,3.42
2023-04-26T01:01:16.089Z,3.67
2023-04-26T01:03:18.088Z,3.05
2023-04-26T01:05:19.854Z,4.10
2023-04-26T01:07:21.430Z,2.95
2023-04-26T01:09:23.031Z,4.75
2023-04-26T01:11:24.722Z,4.40
2023-04-26T01:13:26.776Z,3.15
2023-04-26T01:15:30.275Z,3.45
2023-04-26T01:17:32.040Z,3.22
2023-04-26T01:19:33.720Z,3.85
2023-04-26T01:21:35.360Z,3.80
2023-04-26T01:23:36.949Z,4.00
2023-04-26T01:25:38.882Z,4.82
2023-04-26T01:27:41.705Z,3.17
2023-04-26T01:29:43.516Z,3.10
2023-04-26T01:31:45.937Z,3.22
2023-04-26T01:33:47.508Z,2.90
2023-04-26T01:35:49.121Z,2.47
2023-04-26T01:37:50.667Z,3.08
2023-04-26T01:39:52.723Z,4.90
2023-04-26T01:41:54.334Z,3.92
2023-04-26T01:43:56.044Z,3.75
2023-04-26T01:45:57.913Z,3.15
2023-04-26T01:47:59.575Z,3.50
2023-04-26T01:50:01.236Z,2.45
2023-04-26T01:52:02.908Z,3.13
2023-04-26T01:54:04.538Z,3.65
2023-04-26T01:56:06.642Z,3.95
2023-04-26T01:58:08.217Z,2.50
2023-04-26T02:00:10.239Z,5.10
2023-04-26T02:02:11.924Z,2.78
2023-04-26T02:04:13.845Z,2.85
2023-04-26T02:06:15.499Z,3.45
2023-04-26T02:08:17.392Z,2.90
2023-04-26T02:10:19.000Z,3.65
2023-04-26T02:12:20.612Z,3.63
2023-04-26T02:14:22.249Z,2.17
2023-04-26T02:16:23.862Z,3.70
2023-04-26T02:18:26.032Z,2.65
2023-04-26T02:20:27.623Z,3.15
2023-04-26T02:22:29.775Z,3.13
2023-04-26T02:24:33.415Z,3.42
2023-04-26T02:26:35.334Z,4.65
2023-04-26T02:28:37.173Z,2.42
2023-04-26T02:30:38.795Z,3.65
2023-04-26T02:32:40.383Z,2.70
2023-04-26T02:34:43.475Z,4.32
2023-04-26T02:36:44.996Z,3.60
2023-04-26T02:38:49.865Z,2.40
2023-04-26T02:40:58.254Z,2.22
2023-04-26T02:42:59.822Z,3.35
2023-04-26T02:45:01.358Z,3.15
2023-04-26T02:47:03.245Z,3.42
2023-04-26T02:49:04.841Z,2.85
2023-04-26T02:51:06.539Z,3.50
2023-04-26T02:53:08.139Z,2.95
2023-04-26T02:55:10.061Z,3.53
2023-04-26T02:57:11.714Z,3.50
2023-04-26T02:59:13.418Z,2.78
2023-04-26T03:01:15.319Z,3.47
2023-04-26T03:03:17.300Z,3.35
2023-04-26T03:05:20.017Z,2.97
2023-04-26T03:07:22.526Z,3.03
2023-04-26T03:09:24.335Z,3.15
2023-04-26T03:11:26.064Z,2.60
2023-04-26T03:13:27.783Z,2.10
2023-04-26T03:15:29.382Z,4.38
2023-04-26T03:17:31.250Z,4.63
2023-04-26T03:19:32.950Z,4.78
2023-04-26T03:21:34.761Z,3.25
2023-04-26T03:23:36.349Z,2.22
2023-04-26T03:25:37.914Z,2.55
2023-04-26T03:27:39.570Z,3.17
2023-04-26T03:29:43.421Z,3.40
2023-04-26T03:31:45.939Z,4.43
2023-04-26T03:33:47.588Z,3.60
2023-04-26T03:35:49.344Z,3.10
2023-04-26T03:37:53.415Z,3.00
2023-04-26T03:39:55.301Z,4.80
2023-04-26T03:41:56.841Z,3.45
2023-04-26T03:43:58.422Z,2.90
2023-04-26T03:46:00.462Z,3.50
2023-04-26T03:48:02.604Z,3.28
2023-04-26T03:50:04.525Z,3.13
2023-04-26T03:52:06.248Z,3.22
2023-04-26T03:54:07.752Z,2.60
2023-04-26T03:56:09.279Z,3.83
2023-04-26T03:58:11.472Z,3.90
2023-04-26T04:00:14.505Z,2.78
2023-04-26T04:02:16.386Z,2.42
2023-04-26T04:04:18.501Z,2.92
2023-04-26T04:06:20.482Z,4.05
2023-04-26T04:08:22.085Z,2.58
2023-04-26T04:10:23.867Z,2.45
2023-04-26T04:12:25.656Z,2.78
2023-04-26T04:14:27.289Z,4.28
2023-04-26T04:16:29.131Z,4.25
2023-04-26T04:18:31.042Z,2.20
2023-04-26T04:20:34.858Z,6.82
2023-04-26T04:22:36.537Z,2.90
2023-04-26T04:24:38.393Z,5.63
2023-04-26T04:26:39.997Z,2.35
2023-04-26T04:28:41.814Z,2.50
2023-04-26T04:30:47.311Z,2.65
2023-04-26T04:32:49.000Z,3.80
2023-04-26T04:34:53.934Z,4.00
2023-04-26T04:36:55.535Z,3.55
2023-04-26T04:38:57.366Z,3.47
2023-04-26T04:40:59.454Z,3.40
2023-04-26T04:43:01.084Z,2.70
2023-04-26T04:45:03.344Z,6.38
2023-04-26T04:47:04.979Z,1.67
2023-04-26T04:49:09.964Z,3.85
2023-04-26T04:51:11.966Z,4.10
2023-04-26T04:53:13.828Z,4.40
2023-04-26T04:55:15.435Z,4.32
2023-04-26T04:57:17.131Z,3.08
2023-04-26T04:59:18.825Z,3.85
2023-04-26T05:01:20.485Z,4.32
2023-04-26T05:03:22.854Z,2.97
2023-04-26T05:05:24.534Z,5.45
2023-04-26T05:07:27.367Z,2.75
2023-04-26T05:09:30.572Z,5.53
2023-04-26T05:11:33.071Z,2.40
2023-04-26T05:13:34.677Z,4.50
2023-04-26T05:15:36.719Z,2.65
2023-04-26T05:17:38.425Z,3.17
2023-04-26T05:19:40.393Z,3.70
2023-04-26T05:21:42.049Z,2.97
2023-04-26T05:23:46.653Z,3.40
2023-04-26T05:25:48.178Z,4.35
2023-04-26T05:27:52.789Z,3.55
2023-04-26T05:29:54.370Z,3.60
2023-04-26T05:31:55.963Z,3.45
2023-04-26T05:33:57.596Z,2.42
2023-04-26T05:35:59.717Z,3.17
2023-04-26T05:38:01.435Z,7.47
2023-04-26T05:40:04.676Z,4.80
2023-04-26T05:42:06.306Z,3.65
2023-04-26T05:44:08.076Z,2.55
2023-04-26T05:46:09.720Z,2.97
2023-04-26T05:50:14.238Z,5.38
2023-04-26T05:52:15.801Z,5.55
2023-04-26T05:54:17.496Z,3.17
2023-04-26T05:56:19.085Z,2.72
2023-04-26T05:58:20.900Z,4.57
2023-04-26T06:00:23.613Z,4.47
2023-04-26T06:02:26.052Z,2.83
2023-04-26T06:04:27.893Z,4.35
2023-04-26T06:06:29.765Z,3.90
2023-04-26T06:08:31.428Z,3.95
2023-04-26T06:10:33.172Z,3.25
2023-04-26T06:12:34.731Z,3.40
2023-04-26T06:14:36.367Z,3.08
2023-04-26T06:16:38.013Z,3.35
2023-04-26T06:18:39.633Z,3.78
2023-04-26T06:20:44.278Z,5.85
2023-04-26T06:22:45.844Z,6.43
2023-04-26T06:24:47.469Z,4.68
2023-04-26T06:26:49.004Z,4.90
2023-04-26T06:28:50.683Z,7.40
2023-04-26T06:30:52.881Z,5.28
2023-04-26T06:32:54.667Z,6.75
2023-04-26T06:34:56.283Z,5.28
2023-04-26T06:36:57.896Z,7.50
2023-04-26T06:38:59.524Z,4.88
2023-04-26T06:41:01.155Z,4.63
2023-04-26T06:43:03.192Z,4.30
2023-04-26T06:45:05.205Z,6.07
2023-04-26T06:47:09.507Z,5.47
2023-04-26T06:49:11.677Z,6.93
2023-04-26T06:51:13.966Z,5.47
2023-04-26T06:53:15.644Z,4.75
2023-04-26T06:55:17.300Z,3.72
2023-04-26T06:57:18.997Z,5.10
2023-04-26T06:59:20.604Z,4.63
2023-04-26T07:01:22.223Z,4.65
2023-04-26T07:03:24.022Z,5.85
2023-04-26T07:05:25.924Z,4.78
2023-04-26T07:07:27.700Z,4.80
2023-04-26T07:09:29.292Z,3.63
2023-04-26T07:11:31.428Z,4.45
2023-04-26T07:13:33.128Z,6.30
2023-04-26T07:15:36.311Z,6.60
2023-04-26T07:17:37.940Z,6.35
2023-04-26T07:19:39.564Z,5.47
2023-04-26T07:21:41.457Z,5.68
2023-04-26T07:23:46.177Z,7.65
2023-04-26T07:25:47.689Z,4.93
2023-04-26T07:27:51.739Z,3.15
2023-04-26T07:29:55.043Z,4.80
2023-04-26T07:31:57.252Z,5.78
2023-04-26T07:33:59.590Z,7.63
2023-04-26T07:36:01.607Z,4.18
2023-04-26T07:38:03.319Z,5.57
2023-04-26T07:40:08.165Z,7.25
2023-04-26T07:42:09.740Z,3.97
2023-04-26T07:44:11.504Z,6.07
2023-04-26T07:46:13.433Z,4.40
2023-04-26T07:48:15.726Z,5.93
2023-04-26T07:50:17.400Z,4.18
2023-04-26T07:52:19.062Z,3.47
2023-04-26T07:54:20.636Z,4.75
2023-04-26T07:56:24.121Z,6.80
2023-04-26T07:58:25.722Z,4.68
2023-04-26T08:00:29.736Z,4.65
2023-04-26T08:02:43.622Z,4.22
2023-04-26T08:04:52.718Z,6.07
2023-04-26T08:06:54.645Z,5.20
2023-04-26T08:08:56.262Z,5.22
2023-04-26T08:10:57.901Z,4.00
2023-04-26T08:13:03.184Z,5.47
2023-04-26T08:15:05.801Z,5.82
2023-04-26T08:17:09.594Z,9.18
2023-04-26T08:21:42.154Z,5.07
2023-04-26T08:23:44.350Z,8.88
2023-04-26T08:25:49.784Z,9.07
2023-04-26T08:27:52.023Z,8.00
2023-04-26T08:29:53.675Z,6.22
2023-04-26T08:31:55.423Z,6.50
2023-04-26T08:33:57.008Z,4.97
2023-04-26T08:36:01.138Z,5.65
2023-04-26T08:38:03.204Z,5.70
2023-04-26T08:40:08.790Z,9.98
2023-04-26T08:42:16.233Z,6.10
2023-04-26T08:44:19.927Z,8.70
2023-04-26T08:46:22.363Z,8.80
2023-04-26T08:48:24.272Z,8.65
2023-04-26T08:50:26.801Z,14.70
2023-04-26T08:52:30.124Z,14.63
2023-04-26T08:54:32.673Z,14.95
2023-04-26T08:56:35.520Z,18.20
2023-04-26T08:58:38.222Z,15.63
2023-04-26T09:00:39.914Z,10.30
2023-04-26T09:02:43.000Z,11.43
2023-04-26T09:04:47.161Z,13.95
2023-04-26T09:06:50.004Z,16.70
2023-04-26T09:08:53.282Z,13.15
2023-04-26T09:10:54.839Z,11.88
2023-04-26T09:12:56.591Z,8.60
2023-04-26T09:14:58.265Z,11.00
2023-04-26T09:17:00.266Z,10.55
2023-04-26T09:19:01.866Z,10.13
2023-04-26T09:21:08.083Z,11.75
2023-04-26T09:23:10.276Z,11.50
2023-04-26T09:25:13.584Z,12.18
2023-04-26T09:27:16.706Z,7.75
2023-04-26T09:29:19.116Z,6.40
2023-04-26T09:31:41.014Z,11.50
2023-04-26T09:33:59.156Z,8.60
2023-04-26T09:36:16.129Z,7.38
2023-04-26T09:38:18.556Z,6.95
2023-04-26T09:40:21.463Z,7.30
2023-04-26T09:42:23.089Z,8.00
2023-04-26T09:44:25.845Z,6.45
2023-04-26T09:46:27.460Z,8.10
2023-04-26T09:48:34.517Z,9.32
2023-04-26T09:50:36.428Z,5.38
2023-04-26T09:52:47.162Z,5.30
2023-04-26T09:54:49.696Z,6.30
2023-04-26T09:57:01.668Z,6.93
2023-04-26T09:59:05.606Z,6.03
2023-04-26T10:01:08.678Z,8.15
2023-04-26T10:03:11.310Z,5.88
2023-04-26T10:05:13.199Z,5.97
2023-04-26T10:07:16.155Z,5.38
2023-04-26T10:09:18.372Z,5.68
2023-04-26T10:11:21.602Z,6.75
2023-04-26T10:13:23.211Z,7.93
2023-04-26T10:15:25.014Z,9.90
2023-04-26T10:17:26.744Z,6.25
2023-04-26T10:19:29.719Z,8.85
2023-04-26T10:21:35.347Z,9.77
2023-04-26T10:23:37.433Z,6.95
2023-04-26T10:25:40.491Z,7.88
2023-04-26T10:27:45.196Z,8.15
2023-04-26T10:29:56.447Z,8.50
2023-04-26T10:32:04.626Z,7.22
2023-04-26T10:34:20.061Z,7.53
2023-04-26T10:36:21.584Z,3.70
2023-04-26T10:38:23.261Z,8.50
2023-04-26T10:40:40.351Z,5.30
2023-04-26T10:42:42.041Z,6.85
2023-04-26T10:44:45.663Z,7.43
2023-04-26T10:46:51.607Z,6.03
2023-04-26T10:48:53.456Z,4.50
2023-04-26T10:51:01.396Z,10.38
2023-04-26T10:53:05.619Z,6.97
2023-04-26T10:55:08.423Z,5.28
2023-04-26T10:57:10.025Z,7.13
2023-04-26T10:59:36.209Z,8.23
2023-04-26T11:01:44.253Z,15.55
2023-04-26T11:03:58.960Z,7.85
2023-04-26T11:06:05.550Z,4.90
2023-04-26T11:08:17.827Z,5.35
2023-04-26T11:10:23.128Z,6.35
2023-04-26T11:12:24.732Z,6.15
2023-04-26T11:14:26.445Z,4.78
2023-04-26T11:16:28.991Z,4.90
2023-04-26T11:18:31.913Z,6.10
2023-04-26T11:20:34.416Z,5.35
2023-04-26T11:22:40.779Z,5.82
2023-04-26T11:24:42.911Z,10.05
2023-04-26T11:26:51.422Z,13.52
2023-04-26T11:28:53.131Z,7.03
2023-04-26T11:30:55.748Z,7.55
2023-04-26T11:32:58.907Z,7.25
2023-04-26T11:35:01.051Z,6.68
2023-04-26T11:37:03.823Z,5.32
2023-04-26T11:39:05.775Z,5.80
2023-04-26T11:41:07.959Z,4.80
2023-04-26T11:43:10.591Z,3.83
2023-04-26T11:45:12.552Z,7.95
2023-04-26T11:47:14.196Z,4.35
2023-04-26T11:49:16.320Z,6.97
2023-04-26T11:51:18.101Z,8.00
2023-04-26T11:53:20.047Z,7.32
2023-04-26T11:55:25.175Z,7.80
2023-04-26T11:57:31.589Z,5.80
2023-04-26T11:59:33.167Z,3.58
2023-04-26T12:01:34.796Z,3.67
2023-04-26T12:03:37.829Z,5.05
2023-04-26T12:05:39.746Z,4.40
2023-04-26T12:07:42.143Z,6.72
2023-04-26T12:09:44.019Z,4.20
2023-04-26T12:11:50.197Z,4.72
2023-04-26T12:13:51.778Z,10.88
2023-04-26T12:15:54.008Z,8.02
2023-04-26T12:18:10.394Z,8.00
2023-04-26T12:20:12.966Z,6.38
2023-04-26T12:22:20.616Z,7.13
2023-04-26T12:24:23.998Z,5.95
2023-04-26T12:26:46.625Z,6.15
2023-04-26T12:28:48.240Z,3.53
2023-04-26T12:30:50.814Z,6.82
2023-04-26T12:32:52.517Z,4.32
2023-04-26T12:34:54.236Z,6.30
2023-04-26T12:36:56.222Z,4.03
2023-04-26T12:38:58.076Z,6.07
2023-04-26T12:40:59.791Z,4.65
2023-04-26T12:43:01.327Z,5.07
2023-04-26T12:45:03.080Z,4.97
2023-04-26T12:47:04.752Z,4.78
2023-04-26T12:49:06.323Z,4.28
2023-04-26T12:51:08.142Z,4.90
2023-04-26T12:53:11.109Z,4.53
2023-04-26T12:55:13.958Z,3.28
2023-04-26T12:57:15.709Z,3.90
2023-04-26T12:59:17.319Z,5.95
2023-04-26T13:01:18.958Z,5.53
2023-04-26T13:03:20.904Z,10.13
2023-04-26T13:05:24.794Z,12.45
2023-04-26T13:07:26.876Z,11.88
2023-04-26T13:09:28.537Z,10.70
2023-04-26T13:11:30.109Z,10.40
2023-04-26T13:13:42.428Z,18.63
2023-04-26T13:15:45.974Z,12.70
2023-04-26T13:17:47.600Z,16.05
2023-04-26T13:19:49.310Z,9.85
2023-04-26T13:21:52.557Z,9.80
2023-04-26T13:23:54.222Z,5.90
2023-04-26T13:25:55.787Z,6.70
2023-04-26T13:27:57.352Z,15.40
2023-04-26T13:29:59.045Z,14.60
2023-04-26T13:32:01.251Z,12.00
2023-04-26T13:34:03.552Z,8.75
2023-04-26T13:36:05.383Z,9.40
2023-04-26T13:38:07.010Z,13.95
2023-04-26T13:40:11.189Z,17.25
2023-04-26T13:42:14.596Z,19.92
2023-04-26T13:44:16.253Z,14.65
2023-04-26T13:46:17.864Z,10.10
2023-04-26T13:48:19.510Z,11.80
2023-04-26T13:50:21.298Z,13.48
2023-04-26T13:52:22.923Z,17.35
2023-04-26T13:54:26.042Z,19.45
2023-04-26T13:56:27.765Z,17.25
2023-04-26T13:58:29.496Z,8.30
2023-04-26T14:00:31.143Z,10.27
2023-04-26T14:02:32.950Z,15.73
2023-04-26T14:04:35.116Z,15.95
2023-04-26T14:06:36.837Z,14.07
2023-04-26T14:08:38.444Z,12.75
2023-04-26T14:10:40.004Z,6.22
2023-04-26T14:12:42.169Z,7.70
2023-04-26T14:14:46.459Z,6.07
2023-04-26T14:16:48.001Z,9.00
2023-04-26T14:18:49.568Z,4.38
2023-04-26T14:20:51.573Z,7.30
2023-04-26T14:22:53.143Z,5.38
2023-04-26T14:24:55.257Z,7.53
2023-04-26T14:26:58.261Z,11.93
2023-04-26T14:29:00.686Z,17.80
2023-04-26T14:31:02.787Z,17.80
2023-04-26T14:33:04.437Z,10.77
2023-04-26T14:35:06.314Z,8.15
2023-04-26T14:37:08.044Z,8.88
2023-04-26T14:39:09.775Z,12.68
2023-04-26T14:41:18.138Z,14.27
2023-04-26T14:43:19.738Z,10.32
2023-04-26T14:45:27.730Z,13.10
2023-04-26T14:47:35.409Z,29.83
2023-04-26T14:49:37.064Z,19.20
2023-04-26T14:51:38.583Z,13.57
2023-04-26T14:53:40.297Z,14.50
2023-04-26T14:55:42.003Z,17.73
2023-04-26T14:57:43.767Z,19.30
2023-04-26T14:59:45.312Z,18.73
2023-04-26T15:01:47.152Z,18.52
2023-04-26T15:03:48.957Z,13.88
2023-04-26T15:05:50.695Z,22.83
2023-04-26T15:07:52.417Z,21.90
2023-04-26T15:09:54.090Z,17.42
2023-04-26T15:11:55.939Z,13.63
2023-04-26T15:13:57.546Z,9.75
2023-04-26T15:16:05.953Z,11.18
2023-04-26T15:18:09.160Z,11.73
2023-04-26T15:20:11.158Z,7.70
2023-04-26T15:22:12.895Z,8.73
2023-04-26T15:24:14.498Z,11.13
2023-04-26T15:26:16.136Z,12.57
2023-04-26T15:28:18.083Z,9.07
2023-04-26T15:30:19.713Z,13.27
2023-04-26T15:32:21.266Z,12.05
2023-04-26T15:34:25.188Z,9.48
2023-04-26T15:36:28.154Z,14.73
2023-04-26T15:38:29.810Z,15.13
2023-04-26T15:40:31.375Z,11.63
2023-04-26T15:42:32.950Z,9.82
2023-04-26T15:44:34.602Z,6.38
2023-04-26T15:46:37.969Z,6.00
2023-04-26T15:48:39.811Z,8.02
2023-04-26T15:50:41.358Z,8.80
2023-04-26T15:52:43.025Z,6.50
2023-04-26T15:54:44.612Z,5.10
2023-04-26T15:56:48.878Z,6.03
2023-04-26T15:58:51.019Z,14.43
2023-04-26T16:00:52.632Z,26.85
2023-04-26T16:02:54.373Z,29.83
2023-04-26T16:04:56.334Z,21.10
2023-04-26T16:06:58.160Z,18.23
2023-04-26T16:09:02.220Z,24.70
2023-04-26T16:11:03.885Z,10.20
2023-04-26T16:13:05.689Z,15.20
2023-04-26T16:15:08.316Z,7.97
2023-04-26T16:17:10.294Z,13.32
2023-04-26T16:19:11.873Z,6.75
2023-04-26T16:21:13.575Z,8.98
2023-04-26T16:23:16.027Z,6.13
2023-04-26T16:25:17.615Z,8.93
2023-04-26T16:27:21.434Z,5.60
2023-04-26T16:29:24.854Z,7.32
2023-04-26T16:31:26.711Z,9.20
2023-04-26T16:33:28.501Z,7.70
2023-04-26T16:35:30.845Z,7.55
2023-04-26T16:37:32.372Z,8.07
2023-04-26T16:39:34.809Z,7.95
2023-04-26T16:41:36.530Z,6.65
2023-04-26T16:43:38.301Z,6.07
2023-04-26T16:45:40.148Z,5.85
2023-04-26T16:47:42.487Z,4.88
2023-04-26T16:49:44.046Z,3.55
2023-04-26T16:51:51.344Z,6.25
2023-04-26T16:53:52.959Z,4.70
2023-04-26T16:55:55.602Z,5.90
2023-04-26T16:57:57.537Z,6.22
2023-04-26T16:59:59.140Z,4.90
2023-04-26T17:02:00.805Z,3.08
2023-04-26T17:04:02.607Z,5.53
2023-04-26T17:06:06.593Z,4.65
2023-04-26T17:08:09.077Z,4.47
2023-04-26T17:10:10.781Z,4.60
2023-04-26T17:12:12.328Z,3.63
2023-04-26T17:14:13.868Z,4.47
2023-04-26T17:16:18.067Z,4.95
2023-04-26T17:18:19.624Z,6.43
2023-04-26T17:20:21.337Z,3.20
2023-04-26T17:22:22.970Z,4.75
2023-04-26T17:24:24.514Z,3.63
2023-04-26T17:26:29.926Z,6.20
2023-04-26T17:28:32.978Z,3.97
2023-04-26T17:30:34.495Z,3.67
2023-04-26T17:32:36.338Z,4.18
2023-04-26T17:34:38.849Z,7.65
2023-04-26T17:36:40.454Z,8.27
2023-04-26T17:38:42.250Z,5.35
2023-04-26T17:40:43.892Z,4.75
2023-04-26T17:42:46.293Z,4.20
2023-04-26T17:44:47.963Z,2.92
2023-04-26T17:46:49.637Z,3.85
2023-04-26T17:48:51.387Z,3.17
2023-04-26T17:50:53.388Z,5.72
2023-04-26T17:52:54.975Z,3.00
2023-04-26T17:54:56.528Z,4.38
2023-04-26T17:56:58.444Z,3.67
2023-04-26T17:59:01.651Z,2.45
2023-04-26T18:01:04.754Z,2.95
2023-04-26T18:03:06.453Z,3.95
2023-04-26T18:05:08.664Z,4.30
2023-04-26T18:07:12.130Z,4.82
2023-04-26T18:09:13.980Z,3.72
2023-04-26T18:11:15.841Z,3.85
2023-04-26T18:13:18.163Z,4.10
2023-04-26T18:15:20.151Z,3.03
2023-04-26T18:17:21.912Z,2.25
2023-04-26T18:19:23.524Z,4.13
2023-04-26T18:21:25.217Z,3.90
2023-04-26T18:23:26.762Z,5.30
2023-04-26T18:25:28.554Z,2.80
2023-04-26T18:27:30.203Z,4.63
2023-04-26T18:29:32.157Z,2.65
2023-04-26T18:31:34.062Z,2.67
2023-04-26T18:33:35.692Z,2.25
2023-04-26T18:35:37.438Z,3.28
2023-04-26T18:37:39.689Z,2.50
2023-04-26T18:39:41.369Z,3.67
2023-04-26T18:41:42.996Z,3.67
2023-04-26T18:43:44.517Z,3.10
2023-04-26T18:45:46.405Z,3.40
2023-04-26T18:47:47.929Z,3.05
2023-04-26T18:49:49.594Z,2.72
2023-04-26T18:51:51.224Z,3.92
2023-04-26T18:53:53.264Z,3.47
2023-04-26T18:55:56.193Z,3.03
2023-04-26T18:57:57.720Z,2.55
2023-04-26T19:00:00.230Z,2.22
2023-04-26T19:02:02.178Z,2.97
2023-04-26T19:04:04.303Z,3.72
2023-04-26T19:06:09.488Z,3.60
2023-04-26T19:08:11.089Z,2.42
2023-04-26T19:10:14.810Z,3.53
2023-04-26T19:12:16.480Z,2.35
2023-04-26T19:14:18.177Z,3.00
2023-04-26T19:16:19.917Z,2.83
2023-04-26T19:18:21.845Z,3.70
2023-04-26T19:20:25.881Z,3.13
2023-04-26T19:22:27.622Z,3.05
2023-04-26T19:24:29.181Z,2.47
2023-04-26T19:26:30.878Z,2.55
2023-04-26T19:28:32.566Z,4.10
2023-04-26T19:30:34.163Z,2.78
2023-04-26T19:32:36.426Z,2.92
2023-04-26T19:34:38.881Z,3.95
2023-04-26T19:36:40.716Z,3.70
2023-04-26T19:38:42.381Z,2.25
2023-04-26T19:40:44.449Z,3.20
2023-04-26T19:42:46.003Z,2.20
2023-04-26T19:44:47.636Z,3.03
2023-04-26T19:46:49.292Z,3.95
2023-04-26T19:48:51.332Z,4.18
2023-04-26T19:50:53.205Z,2.95
2023-04-26T19:52:54.739Z,2.28
2023-04-26T19:54:56.290Z,4.03
2023-04-26T19:56:57.902Z,5.32
2023-04-26T19:58:59.419Z,4.10
2023-04-26T20:01:01.100Z,4.30
2023-04-26T20:03:03.817Z,3.15
2023-04-26T20:05:05.956Z,2.53
2023-04-26T20:07:07.653Z,2.95
2023-04-26T20:09:10.692Z,2.92
2023-04-26T20:11:16.758Z,3.00
2023-04-26T20:13:18.534Z,2.67
2023-04-26T20:15:20.308Z,2.58
2023-04-26T20:17:21.857Z,3.33
2023-04-26T20:19:23.445Z,3.00
2023-04-26T20:21:26.594Z,3.45
2023-04-26T20:23:29.421Z,2.63
2023-04-26T20:25:31.837Z,2.10
2023-04-26T20:27:33.847Z,3.45
2023-04-26T20:29:35.776Z,2.00
2023-04-26T20:31:37.835Z,3.38
2023-04-26T20:33:39.526Z,4.07
2023-04-26T20:35:42.178Z,4.72
2023-04-26T20:37:44.010Z,3.30
2023-04-26T20:39:45.586Z,3.83
2023-04-26T20:41:47.335Z,5.57
2023-04-26T20:43:49.184Z,5.40
2023-04-26T20:45:51.415Z,5.03
2023-04-26T20:47:53.077Z,3.13
2023-04-26T20:49:54.669Z,3.20
2023-04-26T20:51:56.295Z,3.03
2023-04-26T20:53:57.933Z,2.80
2023-04-26T20:55:59.557Z,2.97
2023-04-26T20:58:01.290Z,2.60
2023-04-26T21:00:03.589Z,3.58
2023-04-26T21:02:05.535Z,6.35
2023-04-26T21:04:07.516Z,2.78
2023-04-26T21:06:09.491Z,2.40
2023-04-26T21:08:11.050Z,2.40
2023-04-26T21:10:12.676Z,3.08
2023-04-26T21:12:14.334Z,2.30
2023-04-26T21:14:16.656Z,2.28
2023-04-26T21:16:18.303Z,2.42
2023-04-26T21:18:19.934Z,3.80
2023-04-26T21:20:21.549Z,4.10
2023-04-26T21:22:23.158Z,2.72
2023-04-26T21:24:24.717Z,3.92
2023-04-26T21:26:26.531Z,2.90
2023-04-26T21:28:28.102Z,2.67
2023-04-26T21:30:29.780Z,4.57
2023-04-26T21:32:31.405Z,2.30
2023-04-26T21:34:33.105Z,3.03
2023-04-26T21:36:34.620Z,3.30
2023-04-26T21:38:36.206Z,4.72
2023-04-26T21:40:37.868Z,4.22
2023-04-26T21:42:39.469Z,3.10
2023-04-26T21:44:41.221Z,3.38
2023-04-26T21:46:42.835Z,3.17
2023-04-26T21:48:45.208Z,3.35
2023-04-26T21:50:50.014Z,5.90
2023-04-26T21:52:51.588Z,3.25
2023-04-26T21:54:53.333Z,5.80
2023-04-26T21:56:54.967Z,6.28
2023-04-26T21:58:56.624Z,2.88
2023-04-26T22:01:10.190Z,4.60
2023-04-26T22:03:12.090Z,2.13
2023-04-26T22:05:14.200Z,3.20
2023-04-26T22:07:15.776Z,3.92
2023-04-26T22:09:17.644Z,3.88
2023-04-26T22:11:19.242Z,3.08
2023-04-26T22:13:21.274Z,2.30
2023-04-26T22:15:22.926Z,3.25
2023-04-26T22:17:24.528Z,3.35
2023-04-26T22:19:26.442Z,2.05
2023-04-26T22:21:28.404Z,2.97
2023-04-26T22:23:31.511Z,3.55
2023-04-26T22:25:33.152Z,2.38
2023-04-26T22:27:34.773Z,2.17
2023-04-26T22:29:36.375Z,2.55
2023-04-26T22:31:38.225Z,2.65
2023-04-26T22:33:39.788Z,2.22
2023-04-26T22:35:41.583Z,2.33
2023-04-26T22:37:43.193Z,3.45
2023-04-26T22:39:44.732Z,2.45
2023-04-26T22:41:46.272Z,2.65
2023-04-26T22:43:47.861Z,3.13
2023-04-26T22:45:49.598Z,2.35
2023-04-26T22:47:51.386Z,2.53
2023-04-26T22:49:53.316Z,1.98
2023-04-26T22:52:07.871Z,2.63
2023-04-26T22:54:13.589Z,4.03
2023-04-26T22:56:15.384Z,1.88
2023-04-26T22:58:17.846Z,2.45
2023-04-26T23:00:19.995Z,2.10
2023-04-26T23:02:21.681Z,2.42
2023-04-26T23:04:23.231Z,2.45
2023-04-26T23:06:24.878Z,1.83
2023-04-26T23:08:26.364Z,2.22
2023-04-26T23:10:31.018Z,2.33
2023-04-26T23:12:33.357Z,1.95
2023-04-26T23:14:35.043Z,2.90
2023-04-26T23:16:38.523Z,2.72
2023-04-26T23:18:43.727Z,2.50
2023-04-26T23:20:45.288Z,2.90
2023-04-26T23:22:46.840Z,2.50
2023-04-26T23:24:48.400Z,2.05
2023-04-26T23:26:50.071Z,2.75
2023-04-26T23:28:51.890Z,1.92
2023-04-26T23:30:53.563Z,2.47
2023-04-26T23:32:55.108Z,1.38
2023-04-26T23:34:56.710Z,2.67
2023-04-26T23:36:58.827Z,2.47
2023-04-26T23:39:09.386Z,2.72
2023-04-26T23:41:11.284Z,2.78
2023-04-26T23:43:13.962Z,2.38
2023-04-26T23:45:15.995Z,3.05
2023-04-26T23:47:17.721Z,3.63
2023-04-26T23:49:19.235Z,2.17
2023-04-26T23:51:20.920Z,2.38
2023-04-26T23:53:22.527Z,1.55
2023-04-26T23:55:24.093Z,2.88
2023-04-26T23:57:25.802Z,2.22
2023-04-26T23:59:27.391Z,2.03
